Time;durP1;ratioP1;P1;durP2;ratioP2;P2;SDS_P1;SDS_P2;PMS_P1;PMS_P2;Temp;Humidity;BMP_temperature;BMP_pressure;BME280_temperature;BME280_humidity;BME280_pressure;Samples;Min_cycle;Max_cycle;Signal;HPM_P1;HPM_P2
2021/11/16 00:02:48;;;;;;;17.20;8.13;;;14.00;59.50;;;;;;6264047;28;20048;-76
2021/11/16 00:05:49;;;;;;;18.83;8.40;;;14.00;59.50;;;;;;6284811;28;20037;-76
2021/11/16 00:08:50;;;;;;;22.13;8.95;;;14.00;59.50;;;;;;6268612;28;20037;-76
2021/11/16 00:11:52;;;;;;;17.67;9.02;;;14.00;59.60;;;;;;6260919;28;20112;-76
2021/11/16 00:14:53;;;;;;;21.73;8.68;;;14.00;59.60;;;;;;6270768;28;20073;-76
2021/11/16 00:17:54;;;;;;;17.20;9.13;;;13.90;59.80;;;;;;6241917;28;20504;-76
2021/11/16 00:20:56;;;;;;;22.52;9.75;;;13.90;59.90;;;;;;6249835;28;20041;-74
2021/11/16 00:23:59;;;;;;;17.58;9.57;;;13.90;60.10;;;;;;6249573;28;20048;-76
2021/11/16 00:27:00;;;;;;;25.67;10.15;;;13.90;60.30;;;;;;6266894;28;20037;-77
2021/11/16 00:30:02;;;;;;;19.00;8.77;;;13.90;60.40;;;;;;6266719;28;20072;-76
2021/11/16 00:33:03;;;;;;;20.45;9.77;;;13.80;60.50;;;;;;6278225;28;20075;-76
2021/11/16 00:36:04;;;;;;;20.27;9.18;;;13.80;60.70;;;;;;6248141;28;20045;-76
2021/11/16 00:39:05;;;;;;;19.83;9.15;;;13.80;60.90;;;;;;6249000;28;20071;-76
2021/11/16 00:42:07;;;;;;;24.02;9.32;;;13.70;61.00;;;;;;6242197;28;20069;-76
2021/11/16 00:45:10;;;;;;;23.52;9.60;;;13.70;61.20;;;;;;6256986;28;20029;-76
2021/11/16 00:48:11;;;;;;;18.38;8.93;;;13.60;61.20;;;;;;6245005;28;20029;-75
2021/11/16 00:51:12;;;;;;;22.63;9.80;;;13.60;61.40;;;;;;6261073;28;20065;-75
2021/11/16 00:54:14;;;;;;;25.63;9.85;;;13.60;61.50;;;;;;6257554;28;20434;-76
2021/11/16 00:57:15;;;;;;;20.52;9.30;;;13.60;61.60;;;;;;6269090;28;20044;-76
2021/11/16 01:00:17;;;;;;;29.33;10.00;;;13.60;61.70;;;;;;6263613;28;20347;-76
2021/11/16 01:03:19;;;;;;;20.33;9.68;;;13.60;61.70;;;;;;6242438;28;20033;-76
2021/11/16 01:06:20;;;;;;;19.60;9.25;;;13.50;61.60;;;;;;6244486;28;20025;-75
2021/11/16 01:09:21;;;;;;;19.38;9.57;;;13.60;61.70;;;;;;6243462;28;20055;-75
2021/11/16 01:12:23;;;;;;;27.25;10.40;;;13.60;61.80;;;;;;6235927;28;20123;-75
2021/11/16 01:15:24;;;;;;;18.10;8.32;;;13.60;61.90;;;;;;6251491;28;20033;-76
2021/11/16 01:18:26;;;;;;;23.33;10.52;;;13.60;62.10;;;;;;6245863;28;20045;-75
2021/11/16 01:21:28;;;;;;;24.98;10.23;;;13.50;62.10;;;;;;6267660;28;20117;-75
2021/11/16 01:24:29;;;;;;;30.23;9.98;;;13.50;62.30;;;;;;6250980;28;20050;-75
2021/11/16 01:27:34;;;;;;;20.48;9.95;;;13.50;62.30;;;;;;6223478;28;20045;-75
2021/11/16 01:30:35;;;;;;;21.70;9.77;;;13.50;62.50;;;;;;6238051;28;20137;-75
2021/11/16 01:33:44;;;;;;;21.42;9.05;;;13.50;62.60;;;;;;6245013;28;20150;-76
2021/11/16 01:36:45;;;;;;;23.10;9.48;;;13.50;62.70;;;;;;6268288;28;20055;-75
2021/11/16 01:39:46;;;;;;;21.77;9.43;;;13.50;62.60;;;;;;6285021;28;20041;-75
2021/11/16 01:42:50;;;;;;;22.27;9.80;;;13.50;62.60;;;;;;6253279;28;20042;-75
2021/11/16 01:45:51;;;;;;;20.58;8.85;;;13.50;62.60;;;;;;6244798;28;20375;-75
2021/11/16 01:48:56;;;;;;;22.10;9.82;;;13.50;62.60;;;;;;6242159;28;20106;-75
2021/11/16 01:51:57;;;;;;;21.02;9.50;;;13.50;62.60;;;;;;6242787;28;20033;-75
2021/11/16 01:54:58;;;;;;;21.08;9.13;;;13.60;62.80;;;;;;6259958;28;20041;-75
2021/11/16 01:58:00;;;;;;;20.67;9.93;;;13.50;62.70;;;;;;6239952;28;20092;-74
2021/11/16 02:01:03;;;;;;;21.85;8.57;;;13.60;62.60;;;;;;6268412;28;20044;-75
2021/11/16 02:04:05;;;;;;;20.55;9.40;;;13.60;62.60;;;;;;6270539;28;20041;-75
2021/11/16 02:07:07;;;;;;;20.80;9.18;;;13.60;62.50;;;;;;6265846;28;20037;-75
2021/11/16 02:10:08;;;;;;;19.98;7.97;;;13.70;62.50;;;;;;6266261;28;20419;-75
2021/11/16 02:13:10;;;;;;;23.00;9.98;;;13.70;62.30;;;;;;6264406;28;20095;-76
2021/11/16 02:16:11;;;;;;;24.40;8.32;;;13.80;62.30;;;;;;6266919;28;20102;-75
2021/11/16 02:19:17;;;;;;;21.02;8.88;;;13.80;62.20;;;;;;6256540;28;20148;-75
2021/11/16 02:22:19;;;;;;;23.08;9.10;;;13.80;62.10;;;;;;6271757;28;20044;-76
2021/11/16 02:25:19;;;;;;;21.83;8.77;;;13.80;62.00;;;;;;6268257;28;20112;-75
2021/11/16 02:28:22;;;;;;;17.25;8.60;;;13.90;62.00;;;;;;6273823;28;20098;-75
2021/11/16 02:31:24;;;;;;;22.77;8.80;;;13.90;61.80;;;;;;6289470;28;20037;-75
2021/11/16 02:34:25;;;;;;;20.35;8.88;;;13.90;61.70;;;;;;6273810;28;20036;-75
2021/11/16 02:37:32;;;;;;;16.50;8.85;;;13.90;61.60;;;;;;6290061;28;20362;-75
2021/11/16 02:40:35;;;;;;;20.20;9.23;;;13.90;61.60;;;;;;6257024;28;20481;-76
2021/11/16 02:43:37;;;;;;;21.50;8.82;;;13.90;61.60;;;;;;6248094;28;20034;-75
2021/11/16 02:46:38;;;;;;;18.77;8.90;;;13.90;61.60;;;;;;6248363;28;20449;-75
2021/11/16 02:49:41;;;;;;;22.48;8.95;;;13.90;61.60;;;;;;6273197;28;20045;-75
2021/11/16 02:52:43;;;;;;;24.92;9.38;;;13.90;61.60;;;;;;6267475;28;20033;-75
2021/11/16 02:55:44;;;;;;;21.58;9.13;;;13.90;61.70;;;;;;6263894;28;20112;-76
2021/11/16 02:58:45;;;;;;;18.95;10.13;;;13.90;61.60;;;;;;6266756;28;20036;-76
2021/11/16 03:01:47;;;;;;;23.13;9.18;;;13.90;61.50;;;;;;6265056;28;20033;-74
2021/11/16 03:04:48;;;;;;;20.98;9.77;;;13.80;61.50;;;;;;6253695;28;20045;-75
2021/11/16 03:07:56;;;;;;;17.15;8.65;;;13.80;61.60;;;;;;6271831;28;20465;-74
2021/11/16 03:11:05;;;;;;;19.10;8.88;;;13.80;61.70;;;;;;6267066;28;20037;-75
2021/11/16 03:14:06;;;;;;;25.73;9.60;;;13.80;61.70;;;;;;6269222;28;20200;-75
2021/11/16 03:17:07;;;;;;;21.63;9.55;;;13.80;61.70;;;;;;6272513;28;20471;-75
2021/11/16 03:20:12;;;;;;;22.98;9.50;;;13.80;61.80;;;;;;6270054;28;20104;-75
2021/11/16 03:23:17;;;;;;;20.70;9.63;;;13.70;61.80;;;;;;6231914;28;20103;-76
2021/11/16 03:26:21;;;;;;;20.50;9.57;;;13.70;62.00;;;;;;6247696;28;20064;-76
2021/11/16 03:29:24;;;;;;;22.50;10.02;;;13.60;62.10;;;;;;6271301;28;20041;-75
2021/11/16 03:32:33;;;;;;;22.67;9.50;;;13.70;62.30;;;;;;6239977;28;20029;-75
2021/11/16 03:35:35;;;;;;;23.73;10.38;;;13.60;62.40;;;;;;6261334;28;20052;-75
2021/11/16 03:38:39;;;;;;;19.98;8.70;;;13.70;62.50;;;;;;6265083;28;20033;-76
2021/11/16 03:41:40;;;;;;;24.92;9.55;;;13.60;62.40;;;;;;6266159;28;20099;-75
2021/11/16 03:44:41;;;;;;;19.60;10.35;;;13.60;62.50;;;;;;6287477;28;20033;-75
2021/11/16 03:47:44;;;;;;;25.17;10.93;;;13.70;62.50;;;;;;6253455;28;20486;-75
2021/11/16 03:50:45;;;;;;;21.83;9.02;;;13.60;62.40;;;;;;6245199;28;20044;-75
2021/11/16 03:53:46;;;;;;;26.65;10.60;;;13.70;62.50;;;;;;6263246;28;20056;-75
2021/11/16 03:56:47;;;;;;;24.65;9.35;;;13.60;62.40;;;;;;6258675;28;20025;-76
2021/11/16 03:59:48;;;;;;;21.10;9.40;;;13.60;62.40;;;;;;6252913;28;20484;-75
2021/11/16 04:02:50;;;;;;;24.50;10.07;;;13.60;62.50;;;;;;6270701;28;20051;-75
2021/11/16 04:05:52;;;;;;;20.90;9.00;;;13.60;62.60;;;;;;6262421;28;20044;-76
2021/11/16 04:08:53;;;;;;;18.98;9.10;;;13.60;62.50;;;;;;6262093;28;20045;-76
2021/11/16 04:11:54;;;;;;;22.73;9.32;;;13.60;62.40;;;;;;6264980;28;20029;-76
2021/11/16 04:14:55;;;;;;;24.63;9.60;;;13.70;62.40;;;;;;6285137;28;20600;-75
2021/11/16 04:17:57;;;;;;;19.40;8.95;;;13.70;62.50;;;;;;6264199;28;20052;-75
2021/11/16 04:20:59;;;;;;;19.10;10.07;;;13.60;62.40;;;;;;6269549;28;20041;-74
2021/11/16 04:24:00;;;;;;;20.83;9.93;;;13.70;62.50;;;;;;6246111;28;20445;-76
2021/11/16 04:27:01;;;;;;;32.15;9.88;;;13.70;62.50;;;;;;6264494;28;20037;-75
2021/11/16 04:30:04;;;;;;;23.30;10.13;;;13.60;62.40;;;;;;6266845;28;20041;-75
2021/11/16 04:33:06;;;;;;;23.63;10.27;;;13.60;63.20;;;;;;6247213;28;20029;-75
2021/11/16 04:36:06;;;;;;;30.40;10.75;;;13.70;62.50;;;;;;6261652;28;20059;-75
2021/11/16 04:39:07;;;;;;;22.05;10.20;;;13.70;62.40;;;;;;6286411;28;20061;-75
2021/11/16 04:42:09;;;;;;;28.35;10.23;;;13.70;62.40;;;;;;6269552;28;20055;-75
2021/11/16 04:45:14;;;;;;;19.20;9.63;;;13.70;62.30;;;;;;6285776;28;20033;-74
2021/11/16 04:48:30;;;;;;;23.33;9.85;;;13.70;62.30;;;;;;6268662;28;20041;-74
2021/11/16 04:51:51;;;;;;;23.38;9.30;;;13.70;62.20;;;;;;6266395;28;20043;-75
2021/11/16 04:55:19;;;;;;;20.42;9.60;;;13.80;62.30;;;;;;6260020;28;20032;-75
2021/11/16 05:02:37;;;;;;;21.95;10.25;;;13.80;62.00;;;;;;6279608;28;20432;-75
2021/11/16 05:05:38;;;;;;;21.23;9.23;;;13.80;62.00;;;;;;6259075;28;20351;-74
2021/11/16 05:08:44;;;;;;;28.73;10.13;;;13.80;62.00;;;;;;6262645;28;20040;-75
2021/11/16 05:11:45;;;;;;;23.63;9.57;;;13.80;62.10;;;;;;6224001;28;20037;-76
2021/11/16 05:14:47;;;;;;;20.80;9.55;;;13.70;62.10;;;;;;6246045;28;20064;-74
2021/11/16 05:17:49;;;;;;;24.77;10.23;;;13.80;62.20;;;;;;6244490;28;20053;-75
2021/11/16 05:20:50;;;;;;;25.67;10.27;;;13.70;62.30;;;;;;6264566;28;21077;-75
2021/11/16 05:23:53;;;;;;;22.27;10.95;;;13.70;62.40;;;;;;6247706;28;20041;-75
2021/11/16 05:26:55;;;;;;;24.13;10.43;;;13.70;62.40;;;;;;6239537;28;20113;-74
2021/11/16 05:29:55;;;;;;;28.10;10.32;;;13.80;62.50;;;;;;6231939;28;20128;-77
2021/11/16 05:32:57;;;;;;;21.40;10.13;;;13.80;62.50;;;;;;6271566;28;20040;-75
2021/11/16 05:35:59;;;;;;;19.33;8.73;;;13.80;62.50;;;;;;6247498;28;20061;-75
2021/11/16 05:39:00;;;;;;;22.80;10.32;;;13.70;62.40;;;;;;6242097;28;20037;-76
2021/11/16 05:42:01;;;;;;;23.73;9.65;;;13.80;62.40;;;;;;6243650;28;20025;-76
2021/11/16 05:45:04;;;;;;;23.60;10.00;;;13.80;62.50;;;;;;6267801;28;20037;-76
2021/11/16 05:48:05;;;;;;;27.95;10.68;;;13.80;62.50;;;;;;6260245;28;20088;-75
2021/11/16 05:51:07;;;;;;;22.30;10.00;;;13.80;62.50;;;;;;6246008;28;20045;-76
2021/11/16 05:54:16;;;;;;;19.02;9.57;;;13.80;62.50;;;;;;6260142;28;20087;-76
2021/11/16 05:57:16;;;;;;;26.05;10.68;;;13.80;62.50;;;;;;6248591;28;20329;-76
2021/11/16 06:00:17;;;;;;;21.77;10.32;;;13.80;62.50;;;;;;6264009;28;20033;-75
2021/11/16 06:03:18;;;;;;;21.80;10.63;;;13.80;62.50;;;;;;6261461;28;20112;-75
2021/11/16 06:06:21;;;;;;;25.77;11.73;;;13.80;62.50;;;;;;6258121;28;20035;-75
2021/11/16 06:09:24;;;;;;;19.83;9.75;;;13.80;62.50;;;;;;6248076;28;20028;-76
2021/11/16 06:12:25;;;;;;;23.60;10.32;;;13.80;62.60;;;;;;6253755;28;20101;-75
2021/11/16 06:15:26;;;;;;;22.38;10.32;;;13.80;62.50;;;;;;6250479;28;20033;-74
2021/11/16 06:18:28;;;;;;;24.65;9.73;;;13.80;62.50;;;;;;6259215;28;20037;-75
2021/11/16 06:21:29;;;;;;;20.35;9.75;;;13.80;62.50;;;;;;6263523;28;20393;-75
2021/11/16 06:24:30;;;;;;;24.90;11.63;;;13.80;62.50;;;;;;6252102;28;20485;-74
2021/11/16 06:27:31;;;;;;;24.27;11.65;;;13.80;62.60;;;;;;6244351;28;20044;-75
2021/11/16 06:30:33;;;;;;;25.77;11.63;;;13.80;62.50;;;;;;6251470;28;20048;-76
2021/11/16 06:33:34;;;;;;;25.63;10.65;;;13.80;62.50;;;;;;6259668;28;20048;-75
2021/11/16 06:36:38;;;;;;;26.90;10.90;;;13.80;62.50;;;;;;6272455;28;20111;-76
2021/11/16 06:39:39;;;;;;;20.08;9.65;;;13.70;62.50;;;;;;6260311;28;20086;-76
2021/11/16 06:42:40;;;;;;;28.15;10.95;;;13.70;62.70;;;;;;6248064;28;20462;-76
2021/11/16 06:45:41;;;;;;;24.50;10.50;;;13.70;62.80;;;;;;6260691;28;20507;-76
2021/11/16 06:48:42;;;;;;;28.65;10.10;;;13.60;62.90;;;;;;6256835;28;20037;-75
2021/11/16 06:51:45;;;;;;;22.73;11.45;;;13.60;63.10;;;;;;6257996;28;20044;-76
2021/11/16 06:54:46;;;;;;;25.88;11.43;;;13.60;63.20;;;;;;6258387;28;20059;-76
2021/11/16 06:57:48;;;;;;;23.20;11.15;;;13.60;63.50;;;;;;6266058;28;20114;-75
2021/11/16 07:00:50;;;;;;;25.25;10.98;;;13.60;63.20;;;;;;6254551;28;20033;-75
2021/11/16 07:03:52;;;;;;;22.73;10.80;;;13.70;63.30;;;;;;6261525;28;20422;-74
2021/11/16 07:06:53;;;;;;;29.85;11.25;;;13.60;63.20;;;;;;6260035;28;20103;-76
2021/11/16 07:09:59;;;;;;;23.70;10.75;;;13.70;63.40;;;;;;6242041;28;20039;-76
2021/11/16 07:13:09;;;;;;;26.58;11.10;;;13.60;63.40;;;;;;6231990;28;20374;-77
2021/11/16 07:16:12;;;;;;;25.42;11.48;;;13.60;63.40;;;;;;6245375;28;20049;-76
2021/11/16 07:19:13;;;;;;;24.63;10.88;;;13.60;63.40;;;;;;6264573;28;20036;-76
2021/11/16 07:22:30;;;;;;;23.25;11.35;;;13.70;63.40;;;;;;6269456;28;20033;-76
2021/11/16 07:25:30;;;;;;;25.25;10.82;;;13.70;63.40;;;;;;6262406;28;20033;-76
2021/11/16 07:28:31;;;;;;;22.90;10.20;;;13.80;64.10;;;;;;6260630;28;20047;-76
2021/11/16 07:31:33;;;;;;;23.27;11.50;;;13.80;63.10;;;;;;6226776;28;20032;-73
2021/11/16 07:34:37;;;;;;;32.95;10.93;;;13.70;63.10;;;;;;6267276;28;20455;-76
2021/11/16 07:37:40;;;;;;;31.77;12.07;;;13.70;63.20;;;;;;6266252;28;20119;-75
2021/11/16 07:40:45;;;;;;;27.00;11.68;;;13.80;63.20;;;;;;6265043;28;20033;-75
2021/11/16 07:43:46;;;;;;;28.23;12.15;;;13.80;63.30;;;;;;6259021;28;20029;-76
2021/11/16 07:46:53;;;;;;;21.70;10.13;;;13.80;63.20;;;;;;6256152;28;20056;-75
2021/11/16 07:49:54;;;;;;;29.98;13.75;;;13.70;63.20;;;;;;6246268;28;20033;-74
2021/11/16 07:53:06;;;;;;;29.55;12.35;;;13.70;63.20;;;;;;6265086;28;20064;-75
2021/11/16 07:56:17;;;;;;;32.88;12.52;;;13.70;63.20;;;;;;6269571;28;20030;-76
2021/11/16 07:59:21;;;;;;;34.15;13.48;;;13.80;63.20;;;;;;6262609;28;20033;-76
2021/11/16 08:02:33;;;;;;;27.45;11.68;;;13.80;63.00;;;;;;6263020;28;20418;-77
2021/11/16 08:11:52;;;;;;;26.42;11.77;;;13.80;62.60;;;;;;6254941;28;20029;-76
2021/11/16 08:15:07;;;;;;;30.05;11.43;;;13.90;62.60;;;;;;6229271;28;20098;-76
2021/11/16 08:18:13;;;;;;;28.70;13.23;;;13.90;62.60;;;;;;6252263;28;20036;-76
2021/11/16 08:21:16;;;;;;;28.98;12.25;;;13.90;62.60;;;;;;6247220;28;20462;-78
2021/11/16 08:24:17;;;;;;;30.92;13.05;;;14.00;62.50;;;;;;6254006;28;20226;-74
2021/11/16 08:27:20;;;;;;;26.98;11.98;;;14.10;62.30;;;;;;6259419;28;20045;-77
2021/11/16 08:30:22;;;;;;;26.88;12.32;;;14.20;62.20;;;;;;6250587;28;20366;-77
2021/11/16 08:33:24;;;;;;;33.15;12.38;;;14.30;61.90;;;;;;6246971;28;20496;-75
2021/11/16 08:36:29;;;;;;;30.70;12.57;;;14.30;61.70;;;;;;6246200;28;20106;-76
2021/11/16 08:39:33;;;;;;;30.35;14.77;;;14.40;61.60;;;;;;6263392;28;20143;-76
2021/11/16 08:42:39;;;;;;;32.78;13.15;;;14.40;61.30;;;;;;6265105;28;20037;-75
2021/11/16 08:45:58;;;;;;;29.35;12.95;;;14.50;61.20;;;;;;6254740;28;20093;-75
2021/11/16 08:48:59;;;;;;;31.77;12.60;;;14.50;61.10;;;;;;6227418;28;20025;-75
2021/11/16 08:52:08;;;;;;;30.48;12.75;;;14.50;60.90;;;;;;6239601;28;20058;-76
2021/11/16 08:55:18;;;;;;;31.20;11.82;;;14.50;60.90;;;;;;6261438;28;20037;-77
2021/11/16 08:58:19;;;;;;;24.02;10.95;;;14.60;61.00;;;;;;6248380;28;20045;-76
2021/11/16 09:01:22;;;;;;;22.98;11.05;;;14.60;60.80;;;;;;6228194;28;20120;-76
2021/11/16 09:04:29;;;;;;;29.88;11.38;;;14.70;60.60;;;;;;6240700;28;20523;-76
2021/11/16 09:07:32;;;;;;;26.73;11.40;;;14.80;60.50;;;;;;6259411;28;20108;-76
2021/11/16 09:10:38;;;;;;;28.10;12.35;;;14.80;60.10;;;;;;6253412;28;20045;-76
2021/11/16 09:13:40;;;;;;;24.30;11.43;;;14.90;59.90;;;;;;6264690;28;20157;-76
2021/11/16 09:16:41;;;;;;;26.08;11.20;;;14.90;59.70;;;;;;6281077;28;20044;-75
2021/11/16 09:19:42;;;;;;;24.13;11.18;;;15.00;59.60;;;;;;6251523;28;20492;-76
2021/11/16 09:22:44;;;;;;;24.52;11.32;;;15.00;59.30;;;;;;6257065;28;20048;-74
2021/11/16 09:25:50;;;;;;;29.77;12.38;;;15.00;59.30;;;;;;6255304;28;20045;-76
2021/11/16 09:29:01;;;;;;;33.83;12.88;;;15.00;59.30;;;;;;6263552;28;20037;-76
2021/11/16 09:32:14;;;;;;;26.52;11.43;;;15.00;59.30;;;;;;6263235;28;20044;-77
2021/11/16 09:39:47;;;;;;;30.70;11.55;;;15.10;59.20;;;;;;6262073;28;20045;-75
2021/11/16 09:42:49;;;;;;;26.13;10.55;;;15.10;59.10;;;;;;6258920;28;20479;-76
2021/11/16 09:45:50;;;;;;;23.42;10.15;;;15.20;59.10;;;;;;6267742;28;20446;-76
2021/11/16 09:49:03;;;;;;;19.98;10.43;;;15.20;58.90;;;;;;6214958;28;20090;-76
2021/11/16 09:52:07;;;;;;;22.02;9.60;;;15.20;58.90;;;;;;6256277;28;20504;-76
2021/11/16 09:55:18;;;;;;;23.95;10.30;;;15.30;58.70;;;;;;6257333;28;20037;-76
2021/11/16 09:58:24;;;;;;;20.02;9.65;;;15.40;58.30;;;;;;6254112;28;20056;-76
2021/11/16 10:01:37;;;;;;;27.17;10.95;;;15.40;58.20;;;;;;6243855;28;20094;-76
2021/11/16 10:04:46;;;;;;;34.13;13.65;;;15.40;58.20;;;;;;6230523;28;20403;-76
2021/11/16 10:08:02;;;;;;;24.15;9.98;;;15.40;58.10;;;;;;6243420;28;20033;-75
2021/11/16 10:11:03;;;;;;;20.50;10.02;;;15.50;58.00;;;;;;6271479;28;20045;-75
2021/11/16 10:14:04;;;;;;;16.77;8.55;;;15.60;57.90;;;;;;6245143;28;20547;-76
2021/11/16 10:17:05;;;;;;;22.63;10.25;;;15.60;57.70;;;;;;6264535;28;20421;-75
2021/11/16 10:20:08;;;;;;;21.10;10.20;;;15.60;57.70;;;;;;6239467;28;20037;-75
2021/11/16 10:23:10;;;;;;;26.65;10.95;;;15.70;57.60;;;;;;6239725;28;20040;-75
2021/11/16 10:26:12;;;;;;;32.22;11.65;;;15.80;57.60;;;;;;6245053;28;20069;-76
2021/11/16 10:29:17;;;;;;;23.60;11.70;;;15.80;57.40;;;;;;6250901;28;20065;-77
2021/11/16 10:32:20;;;;;;;23.38;10.25;;;15.80;57.30;;;;;;6263369;28;20446;-75
2021/11/16 10:35:22;;;;;;;26.77;11.55;;;15.90;57.20;;;;;;6285889;28;20108;-75
2021/11/16 10:38:32;;;;;;;31.33;12.77;;;15.80;57.20;;;;;;6260921;28;20044;-75
2021/11/16 10:41:37;;;;;;;29.38;11.75;;;15.90;57.20;;;;;;6243663;28;20056;-75
2021/11/16 10:44:38;;;;;;;24.63;10.23;;;15.90;57.00;;;;;;6262852;28;20323;-76
2021/11/16 10:47:39;;;;;;;23.60;10.30;;;15.90;56.90;;;;;;6265146;28;20037;-75
2021/11/16 10:50:42;;;;;;;22.48;9.93;;;15.90;56.80;;;;;;6264545;28;20044;-76
2021/11/16 10:53:50;;;;;;;27.20;9.55;;;15.80;56.70;;;;;;6269865;28;20052;-76
2021/11/16 10:57:00;;;;;;;18.90;8.70;;;15.80;56.60;;;;;;6284362;28;20037;-77
2021/11/16 11:00:00;;;;;;;32.55;10.15;;;15.80;56.60;;;;;;6236703;28;20052;-76
2021/11/16 11:03:20;;;;;;;22.98;9.50;;;15.80;56.40;;;;;;6252911;28;20029;-76
2021/11/16 11:06:25;;;;;;;23.27;9.65;;;15.70;56.40;;;;;;6272366;28;20156;-76
2021/11/16 11:09:25;;;;;;;21.88;9.90;;;15.70;56.50;;;;;;6271612;28;20037;-77
2021/11/16 11:12:29;;;;;;;28.55;11.18;;;15.60;56.50;;;;;;6270974;28;20052;-76
2021/11/16 11:15:34;;;;;;;23.17;9.48;;;15.60;56.50;;;;;;6286099;28;20121;-76
2021/11/16 11:18:38;;;;;;;22.33;9.38;;;15.60;56.60;;;;;;6272187;28;20053;-76
2021/11/16 11:21:46;;;;;;;19.77;9.05;;;15.50;56.60;;;;;;6285395;28;20037;-75
2021/11/16 11:24:58;;;;;;;;;;;15.60;56.60;;;;;;6261752;28;20053;-75
2021/11/16 11:28:02;;;;;;;21.63;8.20;;;15.50;56.40;;;;;;6255057;28;20388;-76
2021/11/16 11:31:24;;;;;;;18.55;7.82;;;15.50;56.10;;;;;;6250539;28;20557;-76
2021/11/16 11:34:35;;;;;;;16.48;6.85;;;15.40;56.10;;;;;;6294541;28;20100;-76
2021/11/16 11:37:40;;;;;;;14.38;6.72;;;15.40;56.10;;;;;;6260820;28;20041;-78
2021/11/16 11:40:41;;;;;;;16.30;6.93;;;15.40;56.10;;;;;;6248140;28;20103;-77
2021/11/16 11:43:47;;;;;;;14.50;6.57;;;15.40;55.90;;;;;;6247601;28;20075;-76
2021/11/16 11:46:55;;;;;;;16.60;5.80;;;15.30;55.90;;;;;;6269118;28;20377;-75
2021/11/16 11:49:58;;;;;;;13.32;6.25;;;15.30;55.80;;;;;;6229950;28;20045;-76
2021/11/16 11:53:03;;;;;;;12.05;5.82;;;15.30;55.80;;;;;;6247882;28;20116;-76
2021/11/16 11:56:07;;;;;;;15.02;5.75;;;15.30;55.70;;;;;;6262605;28;20025;-76
2021/11/16 11:59:08;;;;;;;9.43;4.90;;;15.30;55.70;;;;;;6268285;28;20108;-76
2021/11/16 12:02:13;;;;;;;10.75;4.88;;;15.30;55.80;;;;;;6265994;28;20025;-76
2021/11/16 12:05:14;;;;;;;11.00;5.28;;;15.30;55.70;;;;;;6261531;28;20477;-77
2021/11/16 12:08:16;;;;;;;15.57;4.65;;;15.30;55.70;;;;;;6226288;28;20052;-77
2021/11/16 12:11:19;;;;;;;10.00;4.57;;;15.30;55.70;;;;;;6225808;28;20025;-76
2021/11/16 12:14:44;;;;;;;11.98;5.13;;;15.20;55.70;;;;;;6243603;28;20375;-79
2021/11/16 12:17:51;;;;;;;9.85;3.90;;;15.20;55.70;;;;;;6270634;28;20095;-76
2021/11/16 12:20:54;;;;;;;7.45;3.92;;;15.20;55.70;;;;;;6261836;28;20091;-76
2021/11/16 12:23:58;;;;;;;8.70;3.80;;;15.20;55.70;;;;;;6229193;28;20057;-76
2021/11/16 12:27:05;;;;;;;8.95;4.13;;;15.20;55.80;;;;;;6288847;28;20036;-76
2021/11/16 12:30:06;;;;;;;8.25;4.38;;;15.20;56.00;;;;;;6258356;28;20033;-76
2021/11/16 12:33:07;;;;;;;9.35;4.63;;;15.10;55.90;;;;;;6248127;28;20044;-76
2021/11/16 12:36:11;;;;;;;9.95;4.43;;;15.10;55.90;;;;;;6259437;28;20040;-75
2021/11/16 12:39:19;;;;;;;10.57;3.97;;;15.10;55.90;;;;;;6243237;28;20030;-76
2021/11/16 12:42:21;;;;;;;10.35;4.20;;;15.00;55.90;;;;;;6246944;28;20033;-76
2021/11/16 12:45:46;;;;;;;10.48;4.28;;;15.00;55.90;;;;;;6248560;28;20025;-76
2021/11/16 12:48:51;;;;;;;9.13;3.97;;;15.00;56.60;;;;;;6273594;28;20455;-75
2021/11/16 12:51:56;;;;;;;7.47;3.30;;;14.90;55.90;;;;;;6260834;28;20037;-75
2021/11/16 12:55:15;;;;;;;9.75;3.97;;;14.90;55.90;;;;;;6253583;28;20106;-77
2021/11/16 12:58:23;;;;;;;;;;;14.80;55.90;;;;;;6252975;28;20340;-76
2021/11/16 13:01:39;;;;;;;11.02;3.58;;;14.80;55.90;;;;;;6265084;28;20267;-77
2021/11/16 13:04:43;;;;;;;10.68;3.90;;;14.80;56.00;;;;;;6253050;28;20034;-76
2021/11/16 13:07:56;;;;;;;11.00;4.30;;;14.80;56.00;;;;;;6276078;28;20095;-77
2021/11/16 13:10:58;;;;;;;11.55;3.97;;;14.80;56.10;;;;;;6241965;28;20042;-76
2021/11/16 13:13:59;;;;;;;9.07;4.20;;;14.80;55.90;;;;;;6255277;28;20117;-76
2021/11/16 13:17:21;;;;;;;8.48;3.70;;;14.80;55.90;;;;;;6255756;28;20068;-76
2021/11/16 13:20:31;;;;;;;7.25;3.65;;;14.70;55.90;;;;;;6253997;28;20033;-76
2021/11/16 13:23:35;;;;;;;10.77;3.90;;;14.70;55.80;;;;;;6251445;28;20145;-76
2021/11/16 13:27:01;;;;;;;9.50;3.75;;;14.70;55.80;;;;;;6252301;28;20037;-75
2021/11/16 13:30:20;;;;;;;9.77;4.28;;;14.60;55.80;;;;;;6253470;28;20041;-77
2021/11/16 13:33:51;;;;;;;7.80;4.13;;;14.50;55.80;;;;;;6234978;28;20036;-76
2021/11/16 13:36:54;;;;;;;16.00;5.95;;;14.50;56.00;;;;;;6251807;28;20064;-76
2021/11/16 13:40:23;;;;;;;9.85;4.15;;;14.40;56.00;;;;;;6274848;28;20359;-77
2021/11/16 13:43:24;;;;;;;10.68;5.82;;;14.40;56.20;;;;;;6247304;28;20033;-78
2021/11/16 13:46:26;;;;;;;10.40;4.75;;;14.50;56.20;;;;;;6260661;28;20048;-78
2021/11/16 13:49:41;;;;;;;9.18;4.25;;;14.50;56.20;;;;;;6262294;28;20461;-79
2021/11/16 13:52:52;;;;;;;11.90;5.05;;;14.40;56.20;;;;;;6216522;28;20033;-75
2021/11/16 13:55:53;;;;;;;11.45;5.00;;;14.50;56.30;;;;;;6243542;28;20033;-76
2021/11/16 13:58:54;;;;;;;11.05;4.70;;;14.40;56.20;;;;;;6279475;28;20037;-75
2021/11/16 14:01:59;;;;;;;12.55;4.38;;;14.40;56.20;;;;;;6262121;28;20102;-74
2021/11/16 14:05:07;;;;;;;7.70;4.40;;;14.40;56.20;;;;;;6245651;28;20040;-76
2021/11/16 14:08:12;;;;;;;8.48;3.95;;;14.40;56.30;;;;;;6263103;28;20040;-77
2021/11/16 14:11:15;;;;;;;6.53;3.85;;;14.40;56.30;;;;;;6243556;28;20037;-76
2021/11/16 14:14:18;;;;;;;8.90;4.30;;;14.40;56.20;;;;;;6273550;28;20053;-75
2021/11/16 14:17:19;;;;;;;11.68;4.28;;;14.30;56.80;;;;;;6251584;28;20044;-76
2021/11/16 14:20:20;;;;;;;14.02;4.25;;;14.30;56.20;;;;;;6248413;28;20363;-75
2021/11/16 14:23:24;;;;;;;9.43;4.70;;;14.30;56.30;;;;;;6266862;28;20108;-76
2021/11/16 14:26:29;;;;;;;10.38;4.47;;;14.30;56.30;;;;;;6268621;28;20478;-77
2021/11/16 14:29:32;;;;;;;16.00;4.80;;;14.40;56.40;;;;;;6280846;28;20075;-78
2021/11/16 14:32:36;;;;;;;10.52;4.72;;;14.40;56.30;;;;;;6286114;28;20772;-76
2021/11/16 14:35:41;;;;;;;11.40;4.90;;;14.40;56.30;;;;;;6251448;28;20526;-76
2021/11/16 14:38:47;;;;;;;12.15;5.13;;;14.30;56.20;;;;;;6256550;28;20545;-77
2021/11/16 14:41:51;;;;;;;15.70;4.45;;;14.30;56.40;;;;;;6249753;28;20144;-77
2021/11/16 14:44:53;;;;;;;12.10;5.38;;;14.30;56.30;;;;;;6255948;28;20041;-77
2021/11/16 14:47:58;;;;;;;7.90;3.70;;;14.20;56.40;;;;;;6252919;28;20063;-77
2021/11/16 14:54:26;;;;;;;10.77;3.83;;;14.20;56.50;;;;;;6249793;28;20414;-76
2021/11/16 14:57:39;;;;;;;11.32;4.75;;;14.20;56.50;;;;;;6262327;28;20124;-76
2021/11/16 15:00:47;;;;;;;18.45;4.38;;;14.20;56.50;;;;;;6270405;28;20330;-76
2021/11/16 15:03:49;;;;;;;10.60;5.10;;;14.20;56.50;;;;;;6241004;28;20045;-76
2021/11/16 15:07:05;;;;;;;8.80;4.00;;;14.20;56.50;;;;;;6246982;28;20494;-76
2021/11/16 15:10:09;;;;;;;11.40;4.35;;;14.20;56.60;;;;;;6283526;28;20044;-78
2021/11/16 15:13:10;;;;;;;10.48;4.93;;;14.10;56.60;;;;;;6265631;28;20071;-77
2021/11/16 15:16:23;;;;;;;8.63;4.65;;;14.10;56.60;;;;;;6253027;28;20086;-76
2021/11/16 15:19:32;;;;;;;8.43;4.22;;;14.10;56.60;;;;;;6271885;28;20343;-75
2021/11/16 15:22:44;;;;;;;;;;;14.10;56.60;;;;;;6256602;28;20358;-76
2021/11/16 15:25:50;;;;;;;10.43;4.18;;;14.10;56.70;;;;;;6274302;28;19928;-76
2021/11/16 15:28:52;;;;;;;14.68;4.85;;;14.00;56.70;;;;;;6253491;28;20033;-76
2021/11/16 15:31:53;;;;;;;8.52;4.10;;;14.00;56.80;;;;;;6257509;28;20061;-76
2021/11/16 15:34:54;;;;;;;11.05;4.75;;;14.00;56.90;;;;;;6257770;28;20469;-76
2021/11/16 15:37:57;;;;;;;10.90;4.78;;;14.00;56.90;;;;;;6259524;28;20041;-76
2021/11/16 15:41:12;;;;;;;13.23;4.32;;;14.00;57.00;;;;;;6259547;28;20046;-76
2021/11/16 15:47:54;;;;;;;13.73;4.85;;;13.90;57.10;;;;;;6260290;28;20414;-76
2021/11/16 15:51:55;;;;;;;10.35;4.55;;;13.90;57.10;;;;;;6254722;28;20041;-76
2021/11/16 15:57:57;;;;;;;7.60;4.43;;;13.90;57.20;;;;;;6261870;28;20041;-76
2021/11/16 16:01:03;;;;;;;9.20;4.45;;;13.90;57.10;;;;;;6253237;28;20195;-76
2021/11/16 16:04:07;;;;;;;10.70;4.25;;;14.00;57.20;;;;;;6242930;28;20363;-76
2021/11/16 16:07:10;;;;;;;11.63;5.30;;;13.90;57.10;;;;;;6260217;28;20106;-76
2021/11/16 16:10:11;;;;;;;9.98;3.95;;;13.90;57.20;;;;;;6256440;28;20030;-76
2021/11/16 16:13:14;;;;;;;7.05;4.18;;;13.80;57.20;;;;;;6246764;28;20044;-76